createdAt,value
2022-12-18T00:02:09.746Z,97.43
2022-12-18T00:05:22.338Z,97.26
2022-12-18T00:08:35.331Z,96.81
2022-12-18T00:11:47.921Z,96.79
2022-12-18T00:15:00.248Z,96.00
2022-12-18T00:18:16.111Z,95.50
2022-12-18T00:21:32.294Z,95.06
2022-12-18T00:24:44.867Z,94.51
2022-12-18T00:27:57.185Z,94.55
2022-12-18T00:31:12.094Z,93.60
2022-12-18T00:34:24.563Z,93.11
2022-12-18T00:37:38.023Z,93.89
2022-12-18T00:40:50.439Z,93.85
2022-12-18T00:44:03.544Z,94.62
2022-12-18T00:47:15.977Z,94.50
2022-12-18T00:50:28.601Z,95.14
2022-12-18T00:53:41.624Z,94.94
2022-12-18T00:56:56.128Z,95.37
2022-12-18T01:00:10.820Z,95.32
2022-12-18T01:03:23.382Z,95.97
2022-12-18T01:06:35.924Z,96.17
2022-12-18T01:09:48.523Z,96.62
2022-12-18T01:13:00.901Z,97.10
2022-12-18T01:16:14.478Z,96.82
2022-12-18T01:19:26.843Z,96.72
2022-12-18T01:22:40.575Z,97.03
2022-12-18T01:25:53.447Z,97.09
2022-12-18T01:29:06.006Z,98.29
2022-12-18T01:32:18.329Z,98.29
2022-12-18T01:35:30.938Z,98.42
2022-12-18T01:38:43.379Z,98.72
2022-12-18T01:42:04.904Z,99.27
2022-12-18T01:45:17.088Z,99.03
2022-12-18T01:48:30.092Z,99.20
2022-12-18T01:51:43.807Z,99.30
2022-12-18T01:54:56.439Z,99.57
2022-12-18T01:58:08.766Z,99.43
2022-12-18T02:01:23.024Z,99.34
2022-12-18T02:04:35.781Z,99.54
2022-12-18T02:08:11.760Z,99.54
2022-12-18T02:11:48.295Z,99.87
2022-12-18T02:15:41.244Z,100.00
2022-12-18T02:19:01.316Z,100.00
2022-12-18T02:22:23.687Z,99.26
2022-12-18T02:25:38.860Z,100.00
2022-12-18T02:28:57.640Z,100.00
2022-12-18T02:32:13.215Z,100.00
2022-12-18T02:35:26.361Z,100.00
2022-12-18T02:38:39.200Z,100.00
2022-12-18T02:41:51.736Z,100.00
2022-12-18T02:45:05.237Z,100.00
2022-12-18T02:48:19.829Z,100.00
2022-12-18T02:51:38.916Z,100.00
2022-12-18T02:55:39.642Z,100.00
2022-12-18T02:59:19.912Z,100.00
2022-12-18T03:02:41.015Z,99.59
2022-12-18T03:06:03.539Z,99.96
2022-12-18T03:09:19.102Z,99.13
2022-12-18T03:12:35.713Z,98.94
2022-12-18T03:15:49.257Z,99.21
2022-12-18T03:19:04.233Z,100.00
2022-12-18T03:22:17.840Z,100.00
2022-12-18T03:25:30.595Z,100.00
2022-12-18T03:28:48.541Z,100.00
2022-12-18T03:32:07.247Z,100.00
2022-12-18T03:35:23.839Z,100.00
2022-12-18T03:38:36.676Z,100.00
2022-12-18T03:41:52.544Z,100.00
2022-12-18T03:45:19.943Z,100.00
2022-12-18T03:48:36.542Z,100.00
2022-12-18T03:51:51.489Z,100.00
2022-12-18T03:55:04.320Z,100.00
2022-12-18T03:58:19.430Z,100.00
2022-12-18T04:01:38.102Z,100.00
2022-12-18T04:04:52.387Z,100.00
2022-12-18T04:08:05.348Z,100.00
2022-12-18T04:11:19.678Z,100.00
2022-12-18T04:14:36.565Z,100.00
2022-12-18T04:17:49.800Z,100.00
2022-12-18T04:21:03.377Z,100.00
2022-12-18T04:24:16.085Z,100.00
2022-12-18T04:27:30.676Z,100.00
2022-12-18T04:30:43.567Z,100.00
2022-12-18T04:33:56.144Z,100.00
2022-12-18T04:37:09.252Z,100.00
2022-12-18T04:40:22.335Z,100.00
2022-12-18T04:43:36.173Z,100.00
2022-12-18T04:46:48.676Z,100.00
2022-12-18T04:50:01.392Z,100.00
2022-12-18T04:53:13.677Z,100.00
2022-12-18T04:56:27.719Z,100.00
2022-12-18T04:59:40.192Z,100.00
2022-12-18T05:02:52.998Z,100.00
2022-12-18T05:06:06.083Z,100.00
2022-12-18T05:09:18.713Z,100.00
2022-12-18T05:12:32.311Z,100.00
2022-12-18T05:15:51.987Z,100.00
2022-12-18T05:19:04.369Z,100.00
2022-12-18T05:22:16.961Z,100.00
2022-12-18T05:25:29.300Z,100.00
2022-12-18T05:28:42.205Z,100.00
2022-12-18T05:31:54.597Z,100.00
2022-12-18T05:35:10.617Z,100.00
2022-12-18T05:38:23.198Z,100.00
2022-12-18T05:41:35.918Z,100.00
2022-12-18T05:44:48.433Z,100.00
2022-12-18T05:48:01.030Z,100.00
2022-12-18T05:51:17.177Z,100.00
2022-12-18T05:54:29.796Z,100.00
2022-12-18T05:57:42.105Z,100.00
2022-12-18T06:00:54.728Z,100.00
2022-12-18T06:04:07.372Z,100.00
2022-12-18T06:07:19.739Z,100.00
2022-12-18T06:10:32.451Z,100.00
2022-12-18T06:13:44.773Z,100.00
2022-12-18T06:16:57.420Z,100.00
2022-12-18T06:20:10.206Z,100.00
2022-12-18T06:23:22.901Z,100.00
2022-12-18T06:26:35.260Z,100.00
2022-12-18T06:29:48.713Z,100.00
2022-12-18T06:33:01.082Z,100.00
2022-12-18T06:36:14.133Z,100.00
2022-12-18T06:39:28.458Z,100.00
2022-12-18T06:42:41.102Z,100.00
2022-12-18T06:46:01.219Z,100.00
2022-12-18T06:49:13.893Z,100.00
2022-12-18T06:52:26.291Z,100.00
2022-12-18T06:55:38.920Z,100.00
2022-12-18T06:58:51.426Z,100.00
2022-12-18T07:02:04.152Z,100.00
2022-12-18T07:05:16.692Z,100.00
2022-12-18T07:08:31.041Z,100.00
2022-12-18T07:11:43.372Z,100.00
2022-12-18T07:14:55.957Z,100.00
2022-12-18T07:18:08.535Z,100.00
2022-12-18T07:21:21.400Z,100.00
2022-12-18T07:24:35.099Z,100.00
2022-12-18T07:27:48.545Z,100.00
2022-12-18T07:31:16.601Z,100.00
2022-12-18T07:34:29.271Z,100.00
2022-12-18T07:37:41.645Z,100.00
2022-12-18T07:40:54.269Z,100.00
2022-12-18T07:44:06.580Z,100.00
2022-12-18T07:47:19.224Z,100.00
2022-12-18T07:50:31.756Z,100.00
2022-12-18T07:53:44.364Z,100.00
2022-12-18T07:56:56.710Z,100.00
2022-12-18T08:00:09.925Z,100.00
2022-12-18T08:03:24.451Z,100.00
2022-12-18T08:06:37.136Z,100.00
2022-12-18T08:09:49.482Z,100.00
2022-12-18T08:13:05.085Z,100.00
2022-12-18T08:16:18.050Z,100.00
2022-12-18T08:19:30.746Z,100.00
2022-12-18T08:22:43.311Z,100.00
2022-12-18T08:25:55.905Z,100.00
2022-12-18T08:29:08.321Z,100.00
2022-12-18T08:32:21.063Z,100.00
2022-12-18T08:35:41.078Z,100.00
2022-12-18T08:38:57.402Z,100.00
2022-12-18T08:42:28.405Z,100.00
2022-12-18T08:45:41.102Z,100.00
2022-12-18T08:48:53.734Z,100.00
2022-12-18T08:52:06.365Z,99.83
2022-12-18T08:55:18.865Z,98.08
2022-12-18T08:58:33.180Z,96.35
2022-12-18T09:01:45.609Z,97.70
2022-12-18T09:04:58.288Z,96.54
2022-12-18T09:08:10.633Z,96.12
2022-12-18T09:11:24.906Z,95.78
2022-12-18T09:14:37.244Z,94.72
2022-12-18T09:17:50.945Z,94.37
2022-12-18T09:21:13.708Z,93.68
2022-12-18T09:24:26.329Z,93.31
2022-12-18T09:27:38.712Z,92.40
2022-12-18T09:30:51.407Z,90.71
2022-12-18T09:34:03.762Z,89.06
2022-12-18T09:37:19.549Z,87.90
2022-12-18T09:40:48.508Z,88.54
2022-12-18T09:44:03.692Z,87.99
2022-12-18T09:47:26.548Z,87.78
2022-12-18T09:50:40.347Z,87.36
2022-12-18T09:53:56.351Z,87.01
2022-12-18T09:57:18.686Z,86.33
2022-12-18T10:00:31.041Z,86.97
2022-12-18T10:03:43.680Z,86.14
2022-12-18T10:07:08.964Z,87.46
2022-12-18T10:10:31.246Z,87.37
2022-12-18T10:13:48.029Z,86.13
2022-12-18T10:17:04.667Z,86.28
2022-12-18T10:20:28.926Z,85.28
2022-12-18T10:23:58.188Z,84.76
2022-12-18T10:27:15.876Z,85.07
2022-12-18T10:30:28.546Z,83.78
2022-12-18T10:33:42.298Z,83.29
2022-12-18T10:36:54.922Z,84.44
2022-12-18T10:40:10.103Z,83.11
2022-12-18T10:43:26.740Z,82.84
2022-12-18T10:46:39.202Z,82.29
2022-12-18T10:49:53.561Z,81.86
2022-12-18T10:53:05.993Z,80.81
2022-12-18T10:56:20.818Z,81.07
2022-12-18T10:59:33.167Z,81.33
2022-12-18T11:02:46.067Z,80.12
2022-12-18T11:06:06.657Z,81.18
2022-12-18T11:09:29.670Z,79.29
2022-12-18T11:12:42.023Z,79.36
2022-12-18T11:15:54.651Z,79.71
2022-12-18T11:19:18.269Z,78.84
2022-12-18T11:22:32.445Z,78.27
2022-12-18T11:25:52.885Z,78.62
2022-12-18T11:29:10.145Z,78.24
2022-12-18T11:32:30.854Z,78.12
2022-12-18T11:35:56.986Z,78.99
2022-12-18T11:39:19.382Z,78.39
2022-12-18T11:42:35.466Z,76.62
2022-12-18T11:46:01.007Z,77.01
2022-12-18T11:49:24.071Z,75.61
2022-12-18T11:52:40.678Z,75.36
2022-12-18T11:56:03.404Z,75.49
2022-12-18T11:59:37.785Z,75.24
2022-12-18T12:02:56.088Z,74.26
2022-12-18T12:06:50.729Z,74.52
2022-12-18T12:10:38.396Z,73.87
2022-12-18T12:13:56.862Z,73.78
2022-12-18T12:17:09.052Z,72.96
2022-12-18T12:20:24.472Z,73.20
2022-12-18T12:23:51.894Z,73.64
2022-12-18T12:27:04.304Z,72.88
2022-12-18T12:30:16.425Z,72.34
2022-12-18T12:34:03.034Z,73.30
2022-12-18T12:38:03.795Z,73.86
2022-12-18T12:41:43.672Z,73.38
2022-12-18T12:44:57.118Z,73.51
2022-12-18T12:48:42.385Z,73.06
2022-12-18T12:52:01.858Z,72.37
2022-12-18T12:55:32.740Z,72.49
2022-12-18T12:58:54.224Z,72.63
2022-12-18T13:02:21.644Z,72.71
2022-12-18T13:05:42.250Z,73.61
2022-12-18T13:08:56.197Z,73.70
2022-12-18T13:12:30.699Z,74.31
2022-12-18T13:16:04.406Z,73.52
2022-12-18T13:19:23.953Z,72.84
2022-12-18T13:22:44.949Z,73.27
2022-12-18T13:25:58.582Z,73.01
2022-12-18T13:29:11.219Z,73.30
2022-12-18T13:32:25.137Z,73.74
2022-12-18T13:35:39.285Z,73.39
2022-12-18T13:39:12.329Z,73.17
2022-12-18T13:42:43.282Z,73.00
2022-12-18T13:46:25.614Z,72.34
2022-12-18T13:49:42.849Z,72.42
2022-12-18T13:52:55.220Z,72.60
2022-12-18T13:56:08.023Z,72.79
2022-12-18T13:59:22.069Z,71.74
2022-12-18T14:02:37.342Z,72.27
2022-12-18T14:06:04.316Z,71.47
2022-12-18T14:09:21.694Z,68.90
2022-12-18T14:12:53.456Z,64.65
2022-12-18T14:16:07.529Z,61.30
2022-12-18T14:19:20.278Z,62.47
2022-12-18T14:22:32.669Z,65.76
2022-12-18T14:25:46.955Z,68.67
2022-12-18T14:29:03.798Z,70.42
2022-12-18T14:32:18.997Z,72.17
2022-12-18T14:35:32.354Z,72.95
2022-12-18T14:38:45.002Z,74.60
2022-12-18T14:41:57.327Z,76.16
2022-12-18T14:45:42.203Z,77.21
2022-12-18T14:48:54.845Z,77.97
2022-12-18T14:52:08.120Z,80.49
2022-12-18T14:55:21.452Z,80.98
2022-12-18T14:58:34.851Z,81.64
2022-12-18T15:01:57.822Z,82.63
2022-12-18T15:05:14.410Z,82.63
2022-12-18T15:08:35.366Z,84.81
2022-12-18T15:11:48.465Z,85.65
2022-12-18T15:15:00.798Z,85.98
2022-12-18T15:18:18.000Z,87.37
2022-12-18T15:21:32.625Z,88.23
2022-12-18T15:24:45.141Z,88.96
2022-12-18T15:27:57.729Z,89.31
2022-12-18T15:31:10.245Z,89.91
2022-12-18T15:34:23.350Z,90.37
2022-12-18T15:37:35.990Z,91.24
2022-12-18T15:40:48.308Z,92.33
2022-12-18T15:44:00.935Z,92.91
2022-12-18T15:47:13.556Z,93.29
2022-12-18T15:50:26.296Z,93.63
2022-12-18T15:53:39.567Z,94.26
2022-12-18T15:57:11.125Z,94.24
2022-12-18T16:00:23.567Z,95.39
2022-12-18T16:03:36.289Z,95.70
2022-12-18T16:07:14.844Z,95.48
2022-12-18T16:10:25.822Z,96.00
2022-12-18T16:13:38.306Z,96.04
2022-12-18T16:16:53.546Z,97.26
2022-12-18T16:20:06.849Z,98.09
2022-12-18T16:23:19.437Z,98.32
2022-12-18T16:26:31.787Z,97.64
2022-12-18T16:29:44.465Z,98.27
2022-12-18T16:32:57.045Z,99.56
2022-12-18T16:36:09.681Z,100.00
2022-12-18T16:39:22.372Z,100.00
2022-12-18T16:42:37.403Z,100.00
2022-12-18T16:45:49.765Z,100.00
2022-12-18T16:49:02.390Z,100.00
2022-12-18T16:52:14.729Z,100.00
2022-12-18T16:55:27.369Z,100.00
2022-12-18T16:58:40.022Z,100.00
2022-12-18T17:01:55.730Z,100.00
2022-12-18T17:05:08.248Z,100.00
2022-12-18T17:08:21.516Z,100.00
2022-12-18T17:11:34.465Z,100.00
2022-12-18T17:14:47.056Z,100.00
2022-12-18T17:17:59.495Z,100.00
2022-12-18T17:21:13.557Z,100.00
2022-12-18T17:24:30.059Z,100.00
2022-12-18T17:27:45.648Z,100.00
2022-12-18T17:30:58.170Z,100.00
2022-12-18T17:34:14.186Z,100.00
2022-12-18T17:37:26.530Z,100.00
2022-12-18T17:40:45.936Z,100.00
2022-12-18T17:44:00.233Z,100.00
2022-12-18T17:47:13.421Z,100.00
2022-12-18T17:50:25.808Z,100.00
2022-12-18T17:53:41.765Z,100.00
2022-12-18T17:56:54.362Z,100.00
2022-12-18T18:00:07.673Z,100.00
2022-12-18T18:03:23.068Z,100.00
2022-12-18T18:06:38.897Z,100.00
2022-12-18T18:09:51.754Z,100.00
2022-12-18T18:13:25.951Z,100.00
2022-12-18T18:16:40.218Z,100.00
2022-12-18T18:19:52.946Z,100.00
2022-12-18T18:23:05.373Z,100.00
2022-12-18T18:26:18.162Z,100.00
2022-12-18T18:29:30.710Z,100.00
2022-12-18T18:32:43.453Z,100.00
2022-12-18T18:35:56.060Z,100.00
2022-12-18T18:39:09.035Z,100.00
2022-12-18T18:42:22.791Z,100.00
2022-12-18T18:45:35.463Z,100.00
2022-12-18T18:48:47.909Z,100.00
2022-12-18T18:52:01.590Z,100.00
2022-12-18T18:55:15.930Z,100.00
2022-12-18T18:58:38.266Z,100.00
2022-12-18T19:01:52.790Z,100.00
2022-12-18T19:05:05.921Z,100.00
2022-12-18T19:08:18.298Z,100.00
2022-12-18T19:11:49.089Z,100.00
2022-12-18T19:15:01.394Z,100.00
2022-12-18T19:18:14.221Z,100.00
2022-12-18T19:21:26.578Z,100.00
2022-12-18T19:24:39.241Z,100.00
2022-12-18T19:27:51.585Z,100.00
2022-12-18T19:31:06.759Z,100.00
2022-12-18T19:34:19.132Z,100.00
2022-12-18T19:37:31.745Z,100.00
2022-12-18T19:40:44.521Z,100.00
2022-12-18T19:43:57.134Z,100.00
2022-12-18T19:47:09.494Z,100.00
2022-12-18T19:50:22.231Z,100.00
2022-12-18T19:53:34.677Z,100.00
2022-12-18T19:56:47.497Z,100.00
2022-12-18T19:59:59.838Z,100.00
2022-12-18T20:03:23.248Z,100.00
2022-12-18T20:06:47.709Z,100.00
2022-12-18T20:10:05.367Z,100.00
2022-12-18T20:13:21.370Z,100.00
2022-12-18T20:16:33.735Z,100.00
2022-12-18T20:19:46.370Z,100.00
2022-12-18T20:22:58.709Z,100.00
2022-12-18T20:26:11.442Z,100.00
2022-12-18T20:29:23.790Z,100.00
2022-12-18T20:32:37.375Z,100.00
2022-12-18T20:35:50.011Z,100.00
2022-12-18T20:39:05.446Z,100.00
2022-12-18T20:42:19.982Z,100.00
2022-12-18T20:45:32.613Z,100.00
2022-12-18T20:48:45.145Z,100.00
2022-12-18T20:51:57.985Z,100.00
2022-12-18T20:55:10.309Z,100.00
2022-12-18T20:58:23.021Z,100.00
2022-12-18T21:01:35.497Z,100.00
2022-12-18T21:04:49.921Z,100.00
2022-12-18T21:08:02.238Z,100.00
2022-12-18T21:11:45.742Z,100.00
2022-12-18T21:15:01.220Z,100.00
2022-12-18T21:18:13.844Z,100.00
2022-12-18T21:21:26.856Z,100.00
2022-12-18T21:24:39.755Z,100.00
2022-12-18T21:27:52.073Z,100.00
2022-12-18T21:31:04.865Z,100.00
2022-12-18T21:34:28.081Z,100.00
2022-12-18T21:37:40.783Z,100.00
2022-12-18T21:40:53.078Z,100.00
2022-12-18T21:44:05.862Z,100.00
2022-12-18T21:47:22.045Z,100.00
2022-12-18T21:50:35.711Z,100.00
2022-12-18T21:53:48.622Z,100.00
2022-12-18T21:57:03.683Z,100.00
2022-12-18T22:00:18.237Z,100.00
2022-12-18T22:03:32.124Z,100.00
2022-12-18T22:06:44.771Z,100.00
2022-12-18T22:09:57.418Z,100.00
2022-12-18T22:13:11.755Z,100.00
2022-12-18T22:16:24.465Z,100.00
2022-12-18T22:19:42.504Z,100.00
2022-12-18T22:22:55.926Z,100.00
2022-12-18T22:26:08.594Z,100.00
2022-12-18T22:29:41.191Z,100.00
2022-12-18T22:32:53.549Z,100.00
2022-12-18T22:36:06.970Z,100.00
2022-12-18T22:39:21.786Z,100.00
2022-12-18T22:42:34.586Z,100.00
2022-12-18T22:45:49.016Z,100.00
2022-12-18T22:49:01.630Z,100.00
2022-12-18T22:52:15.439Z,100.00
2022-12-18T22:55:30.863Z,100.00
2022-12-18T22:58:43.296Z,100.00
2022-12-18T23:01:59.076Z,100.00
2022-12-18T23:05:11.780Z,100.00
2022-12-18T23:08:26.543Z,100.00
2022-12-18T23:11:41.158Z,100.00
2022-12-18T23:14:53.861Z,100.00
2022-12-18T23:18:06.248Z,100.00
2022-12-18T23:21:21.490Z,100.00
2022-12-18T23:24:35.389Z,100.00
2022-12-18T23:27:48.075Z,100.00
2022-12-18T23:31:07.711Z,100.00
2022-12-18T23:34:20.349Z,100.00
2022-12-18T23:37:57.519Z,100.00
2022-12-18T23:41:10.381Z,100.00
2022-12-18T23:44:22.753Z,100.00
2022-12-18T23:47:35.740Z,100.00
2022-12-18T23:50:48.090Z,100.00
2022-12-18T23:54:00.819Z,100.00
2022-12-18T23:57:13.167Z,100.00
